sensor_id;sensor_type;location;lat;lon;timestamp;P1;durP1;ratioP1;P2;durP2;ratioP2
68653;SDS011;55636;51.108;13.622;2023-04-23T00:00:34;10.38;;;8.30;;
68653;SDS011;55636;51.108;13.622;2023-04-23T00:01:37;11.27;;;9.02;;
68653;SDS011;55636;51.108;13.622;2023-04-23T00:02:44;9.65;;;8.60;;
68653;SDS011;55636;51.108;13.622;2023-04-23T00:03:51;10.73;;;8.75;;
68653;SDS011;55636;51.108;13.622;2023-04-23T00:05:03;11.02;;;8.68;;
68653;SDS011;55636;51.108;13.622;2023-04-23T00:06:07;10.05;;;8.43;;
68653;SDS011;55636;51.108;13.622;2023-04-23T00:07:13;12.20;;;8.77;;
68653;SDS011;55636;51.108;13.622;2023-04-23T00:08:17;10.10;;;8.68;;
68653;SDS011;55636;51.108;13.622;2023-04-23T00:09:20;11.55;;;9.00;;
68653;SDS011;55636;51.108;13.622;2023-04-23T00:10:23;11.52;;;8.63;;
68653;SDS011;55636;51.108;13.622;2023-04-23T00:11:28;9.63;;;8.38;;
68653;SDS011;55636;51.108;13.622;2023-04-23T00:12:30;11.50;;;8.63;;
68653;SDS011;55636;51.108;13.622;2023-04-23T00:13:33;10.48;;;8.55;;
68653;SDS011;55636;51.108;13.622;2023-04-23T00:14:36;9.80;;;8.40;;
68653;SDS011;55636;51.108;13.622;2023-04-23T00:15:39;11.65;;;8.60;;
68653;SDS011;55636;51.108;13.622;2023-04-23T00:16:41;9.32;;;7.95;;
68653;SDS011;55636;51.108;13.622;2023-04-23T00:17:44;9.95;;;8.35;;
68653;SDS011;55636;51.108;13.622;2023-04-23T00:18:46;9.80;;;7.97;;
68653;SDS011;55636;51.108;13.622;2023-04-23T00:19:49;10.05;;;7.97;;
68653;SDS011;55636;51.108;13.622;2023-04-23T00:20:52;8.52;;;7.47;;
68653;SDS011;55636;51.108;13.622;2023-04-23T00:21:54;10.60;;;8.23;;
68653;SDS011;55636;51.108;13.622;2023-04-23T00:22:57;8.70;;;7.53;;
68653;SDS011;55636;51.108;13.622;2023-04-23T00:24:00;8.68;;;7.55;;
68653;SDS011;55636;51.108;13.622;2023-04-23T00:25:03;9.38;;;7.93;;
68653;SDS011;55636;51.108;13.622;2023-04-23T00:26:05;9.60;;;7.18;;
68653;SDS011;55636;51.108;13.622;2023-04-23T00:27:08;11.00;;;7.35;;
68653;SDS011;55636;51.108;13.622;2023-04-23T00:28:10;9.63;;;7.50;;
68653;SDS011;55636;51.108;13.622;2023-04-23T00:29:12;8.90;;;7.65;;
68653;SDS011;55636;51.108;13.622;2023-04-23T00:30:16;8.80;;;7.60;;
68653;SDS011;55636;51.108;13.622;2023-04-23T00:31:19;9.68;;;7.32;;
68653;SDS011;55636;51.108;13.622;2023-04-23T00:32:23;8.95;;;7.63;;
68653;SDS011;55636;51.108;13.622;2023-04-23T00:33:25;10.02;;;7.40;;
68653;SDS011;55636;51.108;13.622;2023-04-23T00:34:28;10.38;;;7.60;;
68653;SDS011;55636;51.108;13.622;2023-04-23T00:35:30;8.45;;;6.93;;
68653;SDS011;55636;51.108;13.622;2023-04-23T00:36:33;8.25;;;7.32;;
68653;SDS011;55636;51.108;13.622;2023-04-23T00:37:35;10.52;;;7.05;;
68653;SDS011;55636;51.108;13.622;2023-04-23T00:38:37;8.63;;;7.30;;
68653;SDS011;55636;51.108;13.622;2023-04-23T00:39:40;8.93;;;7.35;;
68653;SDS011;55636;51.108;13.622;2023-04-23T00:40:42;7.68;;;6.82;;
68653;SDS011;55636;51.108;13.622;2023-04-23T00:41:44;10.20;;;7.20;;
68653;SDS011;55636;51.108;13.622;2023-04-23T00:42:47;7.63;;;6.88;;
68653;SDS011;55636;51.108;13.622;2023-04-23T00:43:54;10.55;;;7.15;;
68653;SDS011;55636;51.108;13.622;2023-04-23T00:44:58;8.27;;;6.97;;
68653;SDS011;55636;51.108;13.622;2023-04-23T00:46:02;8.88;;;6.90;;
68653;SDS011;55636;51.108;13.622;2023-04-23T00:47:06;9.13;;;7.20;;
68653;SDS011;55636;51.108;13.622;2023-04-23T00:48:08;9.98;;;7.20;;
68653;SDS011;55636;51.108;13.622;2023-04-23T00:49:12;9.05;;;7.05;;
68653;SDS011;55636;51.108;13.622;2023-04-23T00:50:16;8.30;;;7.40;;
68653;SDS011;55636;51.108;13.622;2023-04-23T00:51:19;9.85;;;6.82;;
68653;SDS011;55636;51.108;13.622;2023-04-23T00:52:22;9.35;;;7.20;;
68653;SDS011;55636;51.108;13.622;2023-04-23T00:53:25;8.45;;;7.45;;
68653;SDS011;55636;51.108;13.622;2023-04-23T00:54:28;7.40;;;6.57;;
68653;SDS011;55636;51.108;13.622;2023-04-23T00:55:31;7.97;;;6.97;;
68653;SDS011;55636;51.108;13.622;2023-04-23T00:56:33;7.85;;;7.03;;
68653;SDS011;55636;51.108;13.622;2023-04-23T00:57:36;7.70;;;6.60;;
68653;SDS011;55636;51.108;13.622;2023-04-23T00:58:39;7.20;;;6.30;;
68653;SDS011;55636;51.108;13.622;2023-04-23T00:59:42;9.18;;;6.57;;
68653;SDS011;55636;51.108;13.622;2023-04-23T01:00:46;10.32;;;7.20;;
68653;SDS011;55636;51.108;13.622;2023-04-23T01:01:50;8.55;;;6.80;;
68653;SDS011;55636;51.108;13.622;2023-04-23T01:02:53;8.05;;;7.00;;
68653;SDS011;55636;51.108;13.622;2023-04-23T01:03:56;9.20;;;6.65;;
68653;SDS011;55636;51.108;13.622;2023-04-23T01:05:01;8.85;;;6.88;;
68653;SDS011;55636;51.108;13.622;2023-04-23T01:06:05;8.05;;;6.35;;
68653;SDS011;55636;51.108;13.622;2023-04-23T01:07:08;7.60;;;6.80;;
68653;SDS011;55636;51.108;13.622;2023-04-23T01:08:13;9.13;;;6.40;;
68653;SDS011;55636;51.108;13.622;2023-04-23T01:09:17;8.32;;;6.70;;
68653;SDS011;55636;51.108;13.622;2023-04-23T01:10:19;7.97;;;7.03;;
68653;SDS011;55636;51.108;13.622;2023-04-23T01:11:22;8.55;;;6.50;;
68653;SDS011;55636;51.108;13.622;2023-04-23T01:12:25;12.73;;;7.20;;
68653;SDS011;55636;51.108;13.622;2023-04-23T01:13:28;9.93;;;6.97;;
68653;SDS011;55636;51.108;13.622;2023-04-23T01:14:31;7.90;;;6.68;;
68653;SDS011;55636;51.108;13.622;2023-04-23T01:15:34;8.18;;;6.65;;
68653;SDS011;55636;51.108;13.622;2023-04-23T01:16:36;7.00;;;6.20;;
68653;SDS011;55636;51.108;13.622;2023-04-23T01:17:39;8.90;;;6.68;;
68653;SDS011;55636;51.108;13.622;2023-04-23T01:18:42;8.57;;;7.03;;
68653;SDS011;55636;51.108;13.622;2023-04-23T01:19:45;8.10;;;6.40;;
68653;SDS011;55636;51.108;13.622;2023-04-23T01:20:47;10.32;;;6.20;;
68653;SDS011;55636;51.108;13.622;2023-04-23T01:21:50;7.10;;;6.35;;
68653;SDS011;55636;51.108;13.622;2023-04-23T01:22:54;7.68;;;6.28;;
68653;SDS011;55636;51.108;13.622;2023-04-23T01:23:57;10.10;;;6.90;;
68653;SDS011;55636;51.108;13.622;2023-04-23T01:24:59;8.18;;;6.57;;
68653;SDS011;55636;51.108;13.622;2023-04-23T01:26:01;7.72;;;5.90;;
68653;SDS011;55636;51.108;13.622;2023-04-23T01:27:04;6.72;;;6.00;;
68653;SDS011;55636;51.108;13.622;2023-04-23T01:28:07;7.47;;;5.82;;
68653;SDS011;55636;51.108;13.622;2023-04-23T01:29:09;9.65;;;6.40;;
68653;SDS011;55636;51.108;13.622;2023-04-23T01:30:12;9.02;;;6.30;;
68653;SDS011;55636;51.108;13.622;2023-04-23T01:31:15;7.68;;;6.18;;
68653;SDS011;55636;51.108;13.622;2023-04-23T01:32:18;9.32;;;6.25;;
68653;SDS011;55636;51.108;13.622;2023-04-23T01:33:22;9.63;;;6.28;;
68653;SDS011;55636;51.108;13.622;2023-04-23T01:34:24;6.97;;;5.93;;
68653;SDS011;55636;51.108;13.622;2023-04-23T01:35:27;7.13;;;6.43;;
68653;SDS011;55636;51.108;13.622;2023-04-23T01:36:30;8.40;;;6.30;;
68653;SDS011;55636;51.108;13.622;2023-04-23T01:37:34;8.07;;;6.03;;
68653;SDS011;55636;51.108;13.622;2023-04-23T01:38:40;6.72;;;6.03;;
68653;SDS011;55636;51.108;13.622;2023-04-23T01:39:43;8.30;;;6.57;;
68653;SDS011;55636;51.108;13.622;2023-04-23T01:40:45;6.65;;;5.95;;
68653;SDS011;55636;51.108;13.622;2023-04-23T01:41:47;7.85;;;6.57;;
68653;SDS011;55636;51.108;13.622;2023-04-23T01:42:50;7.45;;;6.13;;
68653;SDS011;55636;51.108;13.622;2023-04-23T01:43:54;6.55;;;5.95;;
68653;SDS011;55636;51.108;13.622;2023-04-23T01:44:58;8.27;;;6.50;;
68653;SDS011;55636;51.108;13.622;2023-04-23T01:46:00;9.30;;;6.80;;
68653;SDS011;55636;51.108;13.622;2023-04-23T01:47:02;7.05;;;6.32;;
68653;SDS011;55636;51.108;13.622;2023-04-23T01:48:07;8.65;;;6.25;;
68653;SDS011;55636;51.108;13.622;2023-04-23T01:49:11;8.15;;;6.72;;
68653;SDS011;55636;51.108;13.622;2023-04-23T01:50:13;8.77;;;6.35;;
68653;SDS011;55636;51.108;13.622;2023-04-23T01:51:16;8.38;;;6.57;;
68653;SDS011;55636;51.108;13.622;2023-04-23T01:52:18;8.80;;;6.32;;
68653;SDS011;55636;51.108;13.622;2023-04-23T01:53:21;9.05;;;6.47;;
68653;SDS011;55636;51.108;13.622;2023-04-23T01:54:23;7.47;;;6.05;;
68653;SDS011;55636;51.108;13.622;2023-04-23T01:55:26;7.95;;;6.47;;
68653;SDS011;55636;51.108;13.622;2023-04-23T01:56:28;6.93;;;6.00;;
68653;SDS011;55636;51.108;13.622;2023-04-23T01:57:31;9.40;;;6.03;;
68653;SDS011;55636;51.108;13.622;2023-04-23T01:58:34;10.32;;;6.28;;
68653;SDS011;55636;51.108;13.622;2023-04-23T01:59:36;6.05;;;5.45;;
68653;SDS011;55636;51.108;13.622;2023-04-23T02:00:39;8.55;;;6.43;;
68653;SDS011;55636;51.108;13.622;2023-04-23T02:02:46;9.65;;;6.22;;
68653;SDS011;55636;51.108;13.622;2023-04-23T02:03:49;8.10;;;6.53;;
68653;SDS011;55636;51.108;13.622;2023-04-23T02:04:52;8.10;;;6.40;;
68653;SDS011;55636;51.108;13.622;2023-04-23T02:05:55;7.65;;;6.28;;
68653;SDS011;55636;51.108;13.622;2023-04-23T02:06:59;7.20;;;6.43;;
68653;SDS011;55636;51.108;13.622;2023-04-23T02:08:03;9.23;;;6.55;;
68653;SDS011;55636;51.108;13.622;2023-04-23T02:09:05;8.65;;;5.75;;
68653;SDS011;55636;51.108;13.622;2023-04-23T02:10:08;9.63;;;6.40;;
68653;SDS011;55636;51.108;13.622;2023-04-23T02:11:11;9.10;;;7.43;;
68653;SDS011;55636;51.108;13.622;2023-04-23T02:12:14;8.35;;;6.40;;
68653;SDS011;55636;51.108;13.622;2023-04-23T02:13:17;10.43;;;6.50;;
68653;SDS011;55636;51.108;13.622;2023-04-23T02:14:19;8.20;;;6.53;;
68653;SDS011;55636;51.108;13.622;2023-04-23T02:15:22;8.05;;;6.60;;
68653;SDS011;55636;51.108;13.622;2023-04-23T02:16:25;8.10;;;6.47;;
68653;SDS011;55636;51.108;13.622;2023-04-23T02:17:29;8.27;;;6.00;;
68653;SDS011;55636;51.108;13.622;2023-04-23T02:18:31;7.68;;;6.55;;
68653;SDS011;55636;51.108;13.622;2023-04-23T02:19:34;7.70;;;6.32;;
68653;SDS011;55636;51.108;13.622;2023-04-23T02:20:36;7.50;;;6.47;;
68653;SDS011;55636;51.108;13.622;2023-04-23T02:21:41;7.43;;;6.00;;
68653;SDS011;55636;51.108;13.622;2023-04-23T02:22:44;7.80;;;6.10;;
68653;SDS011;55636;51.108;13.622;2023-04-23T02:23:48;6.70;;;5.88;;
68653;SDS011;55636;51.108;13.622;2023-04-23T02:24:53;8.80;;;6.25;;
68653;SDS011;55636;51.108;13.622;2023-04-23T02:25:56;7.07;;;6.28;;
68653;SDS011;55636;51.108;13.622;2023-04-23T02:26:58;7.63;;;6.50;;
68653;SDS011;55636;51.108;13.622;2023-04-23T02:28:00;9.90;;;6.07;;
68653;SDS011;55636;51.108;13.622;2023-04-23T02:29:06;8.85;;;6.60;;
68653;SDS011;55636;51.108;13.622;2023-04-23T02:30:08;7.07;;;6.38;;
68653;SDS011;55636;51.108;13.622;2023-04-23T02:31:12;7.38;;;6.10;;
68653;SDS011;55636;51.108;13.622;2023-04-23T02:32:15;7.75;;;6.28;;
68653;SDS011;55636;51.108;13.622;2023-04-23T02:33:17;7.88;;;6.00;;
68653;SDS011;55636;51.108;13.622;2023-04-23T02:34:20;6.72;;;6.00;;
68653;SDS011;55636;51.108;13.622;2023-04-23T02:35:22;6.40;;;5.50;;
68653;SDS011;55636;51.108;13.622;2023-04-23T02:36:25;7.88;;;6.55;;
68653;SDS011;55636;51.108;13.622;2023-04-23T02:37:29;8.10;;;6.55;;
68653;SDS011;55636;51.108;13.622;2023-04-23T02:38:33;9.70;;;6.55;;
68653;SDS011;55636;51.108;13.622;2023-04-23T02:39:35;7.78;;;6.85;;
68653;SDS011;55636;51.108;13.622;2023-04-23T02:40:40;7.30;;;5.88;;
68653;SDS011;55636;51.108;13.622;2023-04-23T02:41:42;7.60;;;6.20;;
68653;SDS011;55636;51.108;13.622;2023-04-23T02:42:44;8.75;;;5.90;;
68653;SDS011;55636;51.108;13.622;2023-04-23T02:43:47;6.30;;;5.70;;
68653;SDS011;55636;51.108;13.622;2023-04-23T02:44:49;9.35;;;5.80;;
68653;SDS011;55636;51.108;13.622;2023-04-23T02:45:51;7.18;;;6.05;;
68653;SDS011;55636;51.108;13.622;2023-04-23T02:46:53;7.55;;;6.07;;
68653;SDS011;55636;51.108;13.622;2023-04-23T02:47:56;10.02;;;6.50;;
68653;SDS011;55636;51.108;13.622;2023-04-23T02:48:58;7.90;;;5.95;;
68653;SDS011;55636;51.108;13.622;2023-04-23T02:50:01;7.72;;;5.97;;
68653;SDS011;55636;51.108;13.622;2023-04-23T02:51:11;8.32;;;6.22;;
68653;SDS011;55636;51.108;13.622;2023-04-23T02:52:14;8.77;;;6.13;;
68653;SDS011;55636;51.108;13.622;2023-04-23T02:53:16;7.20;;;6.40;;
68653;SDS011;55636;51.108;13.622;2023-04-23T02:54:18;9.77;;;6.40;;
68653;SDS011;55636;51.108;13.622;2023-04-23T02:55:21;8.68;;;6.10;;
68653;SDS011;55636;51.108;13.622;2023-04-23T02:56:23;8.32;;;6.20;;
68653;SDS011;55636;51.108;13.622;2023-04-23T02:57:26;7.28;;;6.10;;
68653;SDS011;55636;51.108;13.622;2023-04-23T02:58:29;7.90;;;6.13;;
68653;SDS011;55636;51.108;13.622;2023-04-23T02:59:34;6.93;;;6.00;;
68653;SDS011;55636;51.108;13.622;2023-04-23T03:00:37;7.85;;;6.20;;
68653;SDS011;55636;51.108;13.622;2023-04-23T03:01:39;7.30;;;5.70;;
68653;SDS011;55636;51.108;13.622;2023-04-23T03:02:44;8.00;;;6.05;;
68653;SDS011;55636;51.108;13.622;2023-04-23T03:03:46;8.82;;;6.47;;
68653;SDS011;55636;51.108;13.622;2023-04-23T03:04:49;7.43;;;5.80;;
68653;SDS011;55636;51.108;13.622;2023-04-23T03:05:52;6.22;;;5.60;;
68653;SDS011;55636;51.108;13.622;2023-04-23T03:06:55;6.85;;;6.03;;
68653;SDS011;55636;51.108;13.622;2023-04-23T03:07:58;7.25;;;5.85;;
68653;SDS011;55636;51.108;13.622;2023-04-23T03:09:01;5.97;;;5.38;;
68653;SDS011;55636;51.108;13.622;2023-04-23T03:10:03;7.32;;;6.00;;
68653;SDS011;55636;51.108;13.622;2023-04-23T03:11:06;7.88;;;5.88;;
68653;SDS011;55636;51.108;13.622;2023-04-23T03:12:09;7.40;;;5.82;;
68653;SDS011;55636;51.108;13.622;2023-04-23T03:13:12;6.85;;;5.68;;
68653;SDS011;55636;51.108;13.622;2023-04-23T03:14:15;6.85;;;5.93;;
68653;SDS011;55636;51.108;13.622;2023-04-23T03:15:17;8.20;;;6.03;;
68653;SDS011;55636;51.108;13.622;2023-04-23T03:16:20;6.50;;;5.75;;
68653;SDS011;55636;51.108;13.622;2023-04-23T03:17:22;6.32;;;5.70;;
68653;SDS011;55636;51.108;13.622;2023-04-23T03:18:25;7.30;;;5.50;;
68653;SDS011;55636;51.108;13.622;2023-04-23T03:19:28;8.75;;;6.13;;
68653;SDS011;55636;51.108;13.622;2023-04-23T03:20:31;6.57;;;5.78;;
68653;SDS011;55636;51.108;13.622;2023-04-23T03:21:33;6.75;;;5.78;;
68653;SDS011;55636;51.108;13.622;2023-04-23T03:22:36;8.77;;;5.75;;
68653;SDS011;55636;51.108;13.622;2023-04-23T03:23:39;6.18;;;5.18;;
68653;SDS011;55636;51.108;13.622;2023-04-23T03:24:41;7.55;;;6.13;;
68653;SDS011;55636;51.108;13.622;2023-04-23T03:25:44;7.90;;;5.70;;
68653;SDS011;55636;51.108;13.622;2023-04-23T03:26:48;7.28;;;5.97;;
68653;SDS011;55636;51.108;13.622;2023-04-23T03:27:50;7.55;;;5.72;;
68653;SDS011;55636;51.108;13.622;2023-04-23T03:28:53;7.28;;;6.10;;
68653;SDS011;55636;51.108;13.622;2023-04-23T03:29:55;8.18;;;6.40;;
68653;SDS011;55636;51.108;13.622;2023-04-23T03:30:58;9.35;;;6.03;;
68653;SDS011;55636;51.108;13.622;2023-04-23T03:32:00;6.45;;;5.57;;
68653;SDS011;55636;51.108;13.622;2023-04-23T03:33:03;9.27;;;5.88;;
68653;SDS011;55636;51.108;13.622;2023-04-23T03:34:06;7.75;;;5.85;;
68653;SDS011;55636;51.108;13.622;2023-04-23T03:35:10;8.23;;;6.10;;
68653;SDS011;55636;51.108;13.622;2023-04-23T03:36:16;6.38;;;5.78;;
68653;SDS011;55636;51.108;13.622;2023-04-23T03:37:19;9.35;;;5.80;;
68653;SDS011;55636;51.108;13.622;2023-04-23T03:38:21;7.78;;;5.85;;
68653;SDS011;55636;51.108;13.622;2023-04-23T03:39:25;7.85;;;6.13;;
68653;SDS011;55636;51.108;13.622;2023-04-23T03:40:28;7.88;;;5.82;;
68653;SDS011;55636;51.108;13.622;2023-04-23T03:41:35;9.18;;;6.00;;
68653;SDS011;55636;51.108;13.622;2023-04-23T03:42:37;7.78;;;6.35;;
68653;SDS011;55636;51.108;13.622;2023-04-23T03:43:40;6.95;;;6.25;;
68653;SDS011;55636;51.108;13.622;2023-04-23T03:44:51;7.40;;;5.82;;
68653;SDS011;55636;51.108;13.622;2023-04-23T03:45:53;6.85;;;5.80;;
68653;SDS011;55636;51.108;13.622;2023-04-23T03:46:56;7.57;;;5.50;;
68653;SDS011;55636;51.108;13.622;2023-04-23T03:47:58;7.38;;;5.93;;
68653;SDS011;55636;51.108;13.622;2023-04-23T03:49:01;7.90;;;6.03;;
68653;SDS011;55636;51.108;13.622;2023-04-23T03:50:06;7.28;;;5.80;;
68653;SDS011;55636;51.108;13.622;2023-04-23T03:51:09;7.60;;;6.15;;
68653;SDS011;55636;51.108;13.622;2023-04-23T03:52:16;9.52;;;5.85;;
68653;SDS011;55636;51.108;13.622;2023-04-23T03:53:18;7.00;;;5.72;;
68653;SDS011;55636;51.108;13.622;2023-04-23T03:54:56;6.70;;;6.00;;
68653;SDS011;55636;51.108;13.622;2023-04-23T03:56:04;7.82;;;5.88;;
68653;SDS011;55636;51.108;13.622;2023-04-23T03:57:12;10.07;;;6.07;;
68653;SDS011;55636;51.108;13.622;2023-04-23T03:58:44;6.68;;;5.93;;
68653;SDS011;55636;51.108;13.622;2023-04-23T03:59:46;7.10;;;5.72;;
68653;SDS011;55636;51.108;13.622;2023-04-23T04:00:49;6.60;;;5.90;;
68653;SDS011;55636;51.108;13.622;2023-04-23T04:01:52;8.32;;;6.13;;
68653;SDS011;55636;51.108;13.622;2023-04-23T04:02:54;6.78;;;6.07;;
68653;SDS011;55636;51.108;13.622;2023-04-23T04:04:00;10.02;;;6.72;;
68653;SDS011;55636;51.108;13.622;2023-04-23T04:05:05;9.38;;;7.68;;
68653;SDS011;55636;51.108;13.622;2023-04-23T04:06:08;10.48;;;7.70;;
68653;SDS011;55636;51.108;13.622;2023-04-23T04:07:11;8.77;;;7.40;;
68653;SDS011;55636;51.108;13.622;2023-04-23T04:08:14;9.38;;;7.47;;
68653;SDS011;55636;51.108;13.622;2023-04-23T04:09:16;8.88;;;7.85;;
68653;SDS011;55636;51.108;13.622;2023-04-23T04:10:18;11.45;;;7.55;;
68653;SDS011;55636;51.108;13.622;2023-04-23T04:11:22;9.55;;;8.00;;
68653;SDS011;55636;51.108;13.622;2023-04-23T04:12:24;9.05;;;7.32;;
68653;SDS011;55636;51.108;13.622;2023-04-23T04:13:26;9.75;;;7.30;;
68653;SDS011;55636;51.108;13.622;2023-04-23T04:14:29;8.23;;;7.15;;
68653;SDS011;55636;51.108;13.622;2023-04-23T04:15:32;10.90;;;7.22;;
68653;SDS011;55636;51.108;13.622;2023-04-23T04:16:34;9.65;;;7.20;;
68653;SDS011;55636;51.108;13.622;2023-04-23T04:17:37;8.32;;;6.90;;
68653;SDS011;55636;51.108;13.622;2023-04-23T04:18:42;7.45;;;6.40;;
68653;SDS011;55636;51.108;13.622;2023-04-23T04:19:44;9.65;;;6.93;;
68653;SDS011;55636;51.108;13.622;2023-04-23T04:20:47;7.65;;;6.60;;
68653;SDS011;55636;51.108;13.622;2023-04-23T04:21:49;8.70;;;6.60;;
68653;SDS011;55636;51.108;13.622;2023-04-23T04:22:52;8.02;;;6.50;;
68653;SDS011;55636;51.108;13.622;2023-04-23T04:23:54;7.25;;;6.55;;
68653;SDS011;55636;51.108;13.622;2023-04-23T04:24:57;7.93;;;6.40;;
68653;SDS011;55636;51.108;13.622;2023-04-23T04:25:59;7.50;;;6.53;;
68653;SDS011;55636;51.108;13.622;2023-04-23T04:27:01;8.13;;;6.65;;
68653;SDS011;55636;51.108;13.622;2023-04-23T04:28:04;8.07;;;6.85;;
68653;SDS011;55636;51.108;13.622;2023-04-23T04:29:12;8.15;;;6.57;;
68653;SDS011;55636;51.108;13.622;2023-04-23T04:30:16;8.25;;;6.65;;
68653;SDS011;55636;51.108;13.622;2023-04-23T04:31:18;7.93;;;6.55;;
68653;SDS011;55636;51.108;13.622;2023-04-23T04:32:22;7.07;;;6.35;;
68653;SDS011;55636;51.108;13.622;2023-04-23T04:33:25;7.90;;;6.43;;
68653;SDS011;55636;51.108;13.622;2023-04-23T04:34:27;7.05;;;6.35;;
68653;SDS011;55636;51.108;13.622;2023-04-23T04:35:30;8.38;;;6.47;;
68653;SDS011;55636;51.108;13.622;2023-04-23T04:36:32;7.22;;;6.03;;
68653;SDS011;55636;51.108;13.622;2023-04-23T04:37:36;6.57;;;5.97;;
68653;SDS011;55636;51.108;13.622;2023-04-23T04:38:38;7.03;;;6.03;;
68653;SDS011;55636;51.108;13.622;2023-04-23T04:39:42;7.22;;;6.38;;
68653;SDS011;55636;51.108;13.622;2023-04-23T04:40:45;8.23;;;6.28;;
68653;SDS011;55636;51.108;13.622;2023-04-23T04:41:47;6.85;;;6.13;;
68653;SDS011;55636;51.108;13.622;2023-04-23T04:42:49;8.32;;;6.50;;
68653;SDS011;55636;51.108;13.622;2023-04-23T04:43:53;7.10;;;6.40;;
68653;SDS011;55636;51.108;13.622;2023-04-23T04:44:56;9.23;;;6.65;;
68653;SDS011;55636;51.108;13.622;2023-04-23T04:46:00;9.38;;;6.55;;
68653;SDS011;55636;51.108;13.622;2023-04-23T04:47:02;7.40;;;6.15;;
68653;SDS011;55636;51.108;13.622;2023-04-23T04:48:05;7.43;;;6.40;;
68653;SDS011;55636;51.108;13.622;2023-04-23T04:49:07;8.60;;;6.40;;
68653;SDS011;55636;51.108;13.622;2023-04-23T04:50:11;10.70;;;6.35;;
68653;SDS011;55636;51.108;13.622;2023-04-23T04:51:14;7.75;;;5.88;;
68653;SDS011;55636;51.108;13.622;2023-04-23T04:52:16;6.60;;;5.90;;
68653;SDS011;55636;51.108;13.622;2023-04-23T04:53:19;6.72;;;5.95;;
68653;SDS011;55636;51.108;13.622;2023-04-23T04:54:21;7.38;;;5.97;;
68653;SDS011;55636;51.108;13.622;2023-04-23T04:55:23;6.72;;;6.03;;
68653;SDS011;55636;51.108;13.622;2023-04-23T04:56:26;9.65;;;6.18;;
68653;SDS011;55636;51.108;13.622;2023-04-23T04:57:29;7.80;;;6.43;;
68653;SDS011;55636;51.108;13.622;2023-04-23T04:58:31;7.53;;;6.28;;
68653;SDS011;55636;51.108;13.622;2023-04-23T04:59:33;8.07;;;6.55;;
68653;SDS011;55636;51.108;13.622;2023-04-23T05:00:35;8.68;;;6.35;;
68653;SDS011;55636;51.108;13.622;2023-04-23T05:01:38;7.55;;;6.07;;
68653;SDS011;55636;51.108;13.622;2023-04-23T05:02:41;6.80;;;5.53;;
68653;SDS011;55636;51.108;13.622;2023-04-23T05:03:43;7.68;;;6.47;;
68653;SDS011;55636;51.108;13.622;2023-04-23T05:04:46;8.07;;;6.25;;
68653;SDS011;55636;51.108;13.622;2023-04-23T05:05:48;7.45;;;5.65;;
68653;SDS011;55636;51.108;13.622;2023-04-23T05:06:50;7.88;;;5.90;;
68653;SDS011;55636;51.108;13.622;2023-04-23T05:07:53;8.27;;;5.80;;
68653;SDS011;55636;51.108;13.622;2023-04-23T05:08:56;8.35;;;5.88;;
68653;SDS011;55636;51.108;13.622;2023-04-23T05:09:59;7.30;;;6.15;;
68653;SDS011;55636;51.108;13.622;2023-04-23T05:11:01;7.10;;;5.72;;
68653;SDS011;55636;51.108;13.622;2023-04-23T05:12:04;7.05;;;5.97;;
68653;SDS011;55636;51.108;13.622;2023-04-23T05:13:09;7.18;;;5.72;;
68653;SDS011;55636;51.108;13.622;2023-04-23T05:14:11;6.32;;;5.72;;
68653;SDS011;55636;51.108;13.622;2023-04-23T05:15:14;7.00;;;5.63;;
68653;SDS011;55636;51.108;13.622;2023-04-23T05:16:16;6.13;;;5.53;;
68653;SDS011;55636;51.108;13.622;2023-04-23T05:17:19;8.15;;;5.90;;
68653;SDS011;55636;51.108;13.622;2023-04-23T05:18:21;7.05;;;5.70;;
68653;SDS011;55636;51.108;13.622;2023-04-23T05:19:24;8.07;;;5.85;;
68653;SDS011;55636;51.108;13.622;2023-04-23T05:20:26;7.20;;;5.60;;
68653;SDS011;55636;51.108;13.622;2023-04-23T05:21:29;7.47;;;5.97;;
68653;SDS011;55636;51.108;13.622;2023-04-23T05:22:32;6.43;;;5.80;;
68653;SDS011;55636;51.108;13.622;2023-04-23T05:23:34;6.70;;;6.00;;
68653;SDS011;55636;51.108;13.622;2023-04-23T05:24:38;8.52;;;5.80;;
68653;SDS011;55636;51.108;13.622;2023-04-23T05:25:40;6.57;;;5.40;;
68653;SDS011;55636;51.108;13.622;2023-04-23T05:26:42;6.47;;;5.80;;
68653;SDS011;55636;51.108;13.622;2023-04-23T05:27:45;6.18;;;5.57;;
68653;SDS011;55636;51.108;13.622;2023-04-23T05:28:48;7.22;;;5.60;;
68653;SDS011;55636;51.108;13.622;2023-04-23T05:29:50;7.25;;;5.88;;
68653;SDS011;55636;51.108;13.622;2023-04-23T05:30:53;6.63;;;5.75;;
68653;SDS011;55636;51.108;13.622;2023-04-23T05:31:55;8.95;;;5.97;;
68653;SDS011;55636;51.108;13.622;2023-04-23T05:32:57;7.57;;;6.03;;
68653;SDS011;55636;51.108;13.622;2023-04-23T05:34:00;6.40;;;5.80;;
68653;SDS011;55636;51.108;13.622;2023-04-23T05:35:02;7.38;;;5.88;;
68653;SDS011;55636;51.108;13.622;2023-04-23T05:36:05;8.00;;;5.72;;
68653;SDS011;55636;51.108;13.622;2023-04-23T05:37:09;6.68;;;5.72;;
68653;SDS011;55636;51.108;13.622;2023-04-23T05:38:12;8.27;;;5.85;;
68653;SDS011;55636;51.108;13.622;2023-04-23T05:39:14;6.72;;;5.65;;
68653;SDS011;55636;51.108;13.622;2023-04-23T05:40:16;7.00;;;5.88;;
68653;SDS011;55636;51.108;13.622;2023-04-23T05:41:18;6.57;;;5.32;;
68653;SDS011;55636;51.108;13.622;2023-04-23T05:42:21;7.22;;;5.80;;
68653;SDS011;55636;51.108;13.622;2023-04-23T05:43:24;7.45;;;5.80;;
68653;SDS011;55636;51.108;13.622;2023-04-23T05:44:28;9.07;;;6.30;;
68653;SDS011;55636;51.108;13.622;2023-04-23T05:45:31;8.40;;;6.35;;
68653;SDS011;55636;51.108;13.622;2023-04-23T05:46:34;8.23;;;6.00;;
68653;SDS011;55636;51.108;13.622;2023-04-23T05:47:36;7.80;;;5.93;;
68653;SDS011;55636;51.108;13.622;2023-04-23T05:48:39;6.95;;;5.70;;
68653;SDS011;55636;51.108;13.622;2023-04-23T05:49:41;8.80;;;6.03;;
68653;SDS011;55636;51.108;13.622;2023-04-23T05:50:43;8.20;;;5.72;;
68653;SDS011;55636;51.108;13.622;2023-04-23T05:51:46;8.70;;;6.22;;
68653;SDS011;55636;51.108;13.622;2023-04-23T05:52:48;7.05;;;6.03;;
68653;SDS011;55636;51.108;13.622;2023-04-23T05:53:51;7.07;;;6.10;;
68653;SDS011;55636;51.108;13.622;2023-04-23T05:54:53;9.63;;;6.00;;
68653;SDS011;55636;51.108;13.622;2023-04-23T05:55:58;7.03;;;6.07;;
68653;SDS011;55636;51.108;13.622;2023-04-23T05:57:00;6.80;;;6.05;;
68653;SDS011;55636;51.108;13.622;2023-04-23T05:58:04;8.35;;;5.93;;
68653;SDS011;55636;51.108;13.622;2023-04-23T05:59:07;7.13;;;5.93;;
68653;SDS011;55636;51.108;13.622;2023-04-23T06:00:09;9.20;;;6.28;;
68653;SDS011;55636;51.108;13.622;2023-04-23T06:01:15;7.25;;;6.15;;
68653;SDS011;55636;51.108;13.622;2023-04-23T06:02:19;7.28;;;6.07;;
68653;SDS011;55636;51.108;13.622;2023-04-23T06:03:25;7.60;;;6.50;;
68653;SDS011;55636;51.108;13.622;2023-04-23T06:04:28;7.90;;;6.07;;
68653;SDS011;55636;51.108;13.622;2023-04-23T06:05:30;7.05;;;6.13;;
68653;SDS011;55636;51.108;13.622;2023-04-23T06:06:34;8.65;;;6.10;;
68653;SDS011;55636;51.108;13.622;2023-04-23T06:07:36;7.55;;;6.40;;
68653;SDS011;55636;51.108;13.622;2023-04-23T06:08:41;6.78;;;6.07;;
68653;SDS011;55636;51.108;13.622;2023-04-23T06:09:45;6.82;;;5.90;;
68653;SDS011;55636;51.108;13.622;2023-04-23T06:10:48;7.85;;;5.97;;
68653;SDS011;55636;51.108;13.622;2023-04-23T06:11:51;7.97;;;6.18;;
68653;SDS011;55636;51.108;13.622;2023-04-23T06:12:54;6.57;;;5.97;;
68653;SDS011;55636;51.108;13.622;2023-04-23T06:13:58;8.15;;;6.07;;
68653;SDS011;55636;51.108;13.622;2023-04-23T06:15:00;8.00;;;5.80;;
68653;SDS011;55636;51.108;13.622;2023-04-23T06:16:03;7.43;;;5.95;;